Time;durP1;ratioP1;P1;durP2;ratioP2;P2;SDS_P1;SDS_P2;PMS_P1;PMS_P2;Temp;Humidity;BMP_temperature;BMP_pressure;BME280_temperature;BME280_humidity;BME280_pressure;Samples;Min_cycle;Max_cycle;Signal;HPM_P1;HPM_P2
2023/05/10 00:00:37;;;;;;;2.10;0.43;;;13.70;99.90;;;;;;5131436;27;20654;-69
2023/05/10 00:03:04;;;;;;;1.87;0.40;;;13.70;99.90;;;;;;5131401;27;20203;-69
2023/05/10 00:05:30;;;;;;;2.17;0.50;;;13.70;99.90;;;;;;5130444;27;20226;-69
2023/05/10 00:07:56;;;;;;;0.80;0.40;;;13.70;99.90;;;;;;5131367;27;20855;-69
2023/05/10 00:10:21;;;;;;;0.80;0.50;;;13.70;99.90;;;;;;5131251;27;20426;-69
2023/05/10 00:12:47;;;;;;;0.80;0.60;;;13.70;99.90;;;;;;5131368;27;20238;-69
2023/05/10 00:15:12;;;;;;;0.80;0.73;;;13.60;99.90;;;;;;5131507;27;20208;-69
2023/05/10 00:17:38;;;;;;;0.80;0.70;;;13.60;99.90;;;;;;5131147;27;20185;-69
2023/05/10 00:20:04;;;;;;;0.90;0.63;;;13.70;99.90;;;;;;5131140;27;20185;-69
2023/05/10 00:22:31;;;;;;;0.90;0.50;;;13.70;99.90;;;;;;5112595;27;20308;-69
2023/05/10 00:24:57;;;;;;;0.80;0.40;;;13.60;99.90;;;;;;5112352;27;20530;-69
2023/05/10 00:27:22;;;;;;;0.80;0.50;;;13.60;99.90;;;;;;5131324;27;20418;-69
2023/05/10 00:29:48;;;;;;;0.87;0.50;;;13.50;99.90;;;;;;5131701;27;20188;-68
2023/05/10 00:32:14;;;;;;;0.90;0.40;;;13.50;99.90;;;;;;5130950;27;20181;-69
2023/05/10 00:34:39;;;;;;;0.70;0.50;;;13.40;99.90;;;;;;5112440;27;20261;-69
2023/05/10 00:37:05;;;;;;;0.80;0.50;;;13.40;99.90;;;;;;5130843;27;20209;-69
2023/05/10 00:39:31;;;;;;;0.90;0.50;;;13.40;99.90;;;;;;5130947;27;20185;-69
2023/05/10 00:41:56;;;;;;;0.80;0.60;;;13.40;99.90;;;;;;5130568;27;20204;-69
2023/05/10 00:44:22;;;;;;;1.97;0.60;;;13.40;99.90;;;;;;5130412;27;20223;-69
2023/05/10 00:46:49;;;;;;;0.80;0.50;;;13.40;99.90;;;;;;5130467;27;20200;-69
2023/05/10 00:49:16;;;;;;;0.80;0.40;;;13.30;99.90;;;;;;5130563;27;20196;-69
2023/05/10 00:51:42;;;;;;;1.57;0.40;;;13.30;99.90;;;;;;5130747;27;20820;-69
2023/05/10 00:54:11;;;;;;;1.20;0.50;;;13.30;99.90;;;;;;5111741;27;20485;-69
2023/05/10 00:56:37;;;;;;;0.90;0.50;;;13.30;99.90;;;;;;5095104;27;20545;-69
2023/05/10 00:59:03;;;;;;;0.70;0.40;;;13.30;99.90;;;;;;5130539;27;20426;-69
2023/05/10 01:01:28;;;;;;;0.80;0.50;;;13.30;99.90;;;;;;5130250;27;20422;-70
2023/05/10 01:03:55;;;;;;;2.07;0.57;;;13.20;99.90;;;;;;5130237;27;20212;-69
2023/05/10 01:06:20;;;;;;;0.73;0.40;;;13.20;99.90;;;;;;5130171;27;20287;-69
2023/05/10 01:08:47;;;;;;;0.80;0.50;;;13.20;99.90;;;;;;5130077;27;20505;-69
2023/05/10 01:11:13;;;;;;;0.80;0.50;;;13.10;99.90;;;;;;5130096;27;20651;-69
2023/05/10 01:13:42;;;;;;;1.27;0.67;;;13.10;99.90;;;;;;5129973;27;20422;-69
2023/05/10 01:16:07;;;;;;;0.80;0.50;;;13.10;99.90;;;;;;5130304;27;20946;-68
2023/05/10 01:18:36;;;;;;;0.70;0.40;;;13.00;99.90;;;;;;5130318;27;20461;-68
2023/05/10 01:21:13;;;;;;;0.80;0.40;;;13.10;99.90;;;;;;5111330;27;20601;-68
2023/05/10 01:23:45;;;;;;;1.33;0.50;;;13.10;99.90;;;;;;5111474;27;20969;-69
2023/05/10 01:26:16;;;;;;;0.80;0.40;;;13.10;99.90;;;;;;5130199;27;20480;-68
2023/05/10 01:29:14;;;;;;;2.50;0.40;;;13.10;99.90;;;;;;5130303;27;20935;-68
2023/05/10 01:32:07;;;;;;;1.00;0.40;;;13.10;99.90;;;;;;5130562;27;20446;-68
2023/05/10 01:34:44;;;;;;;1.10;0.43;;;13.00;99.90;;;;;;5130706;27;20457;-68
2023/05/10 01:37:24;;;;;;;0.70;0.40;;;13.00;99.90;;;;;;5130682;27;20449;-68
2023/05/10 01:40:00;;;;;;;0.80;0.40;;;13.00;99.90;;;;;;5112084;27;20425;-68
2023/05/10 01:42:36;;;;;;;1.33;0.47;;;13.00;99.90;;;;;;5132116;27;20521;-68
2023/05/10 01:45:19;;;;;;;0.80;0.50;;;13.00;99.90;;;;;;5127134;27;20498;-68
2023/05/10 01:47:53;;;;;;;0.70;0.47;;;13.00;99.90;;;;;;5138204;27;20458;-68
2023/05/10 01:50:24;;;;;;;3.30;0.50;;;13.10;99.90;;;;;;5135952;27;20766;-68
2023/05/10 01:52:54;;;;;;;1.63;0.50;;;13.10;99.90;;;;;;5112884;27;20456;-68
2023/05/10 01:55:22;;;;;;;0.70;0.50;;;13.00;99.90;;;;;;5112964;27;20440;-68
2023/05/10 01:57:56;;;;;;;1.97;0.40;;;13.10;99.90;;;;;;5130874;27;20434;-69
2023/05/10 02:00:23;;;;;;;0.70;0.40;;;13.10;99.90;;;;;;5131058;27;20434;-69
2023/05/10 02:02:50;;;;;;;0.70;0.53;;;13.10;99.90;;;;;;5130952;27;20417;-69
2023/05/10 02:05:18;;;;;;;0.90;0.50;;;13.10;99.90;;;;;;5130291;27;20465;-68
2023/05/10 02:07:44;;;;;;;1.83;0.50;;;13.10;99.90;;;;;;5130529;28;20410;-69
2023/05/10 02:10:11;;;;;;;4.33;1.07;;;13.10;99.90;;;;;;5112006;28;20426;-69
2023/05/10 02:12:40;;;;;;;1.97;0.40;;;13.00;99.90;;;;;;5111518;28;20461;-69
2023/05/10 02:15:07;;;;;;;1.43;0.50;;;13.00;99.90;;;;;;5129896;27;20520;-69
2023/05/10 02:17:35;;;;;;;1.47;0.80;;;13.00;99.90;;;;;;5129622;28;20435;-69
2023/05/10 02:20:03;;;;;;;0.80;0.40;;;13.00;99.90;;;;;;5130199;28;20483;-69
2023/05/10 02:22:29;;;;;;;0.80;0.40;;;12.90;99.90;;;;;;5094786;28;20496;-69
2023/05/10 02:24:57;;;;;;;0.80;0.50;;;12.90;99.90;;;;;;5110837;27;20468;-69
2023/05/10 02:27:25;;;;;;;0.70;0.40;;;12.90;99.90;;;;;;5129503;27;20466;-69
2023/05/10 02:29:51;;;;;;;1.67;0.43;;;12.80;99.90;;;;;;5114990;27;20429;-69
2023/05/10 02:32:18;;;;;;;0.80;0.50;;;12.80;99.90;;;;;;5133896;27;20774;-69
2023/05/10 02:34:45;;;;;;;0.70;0.50;;;12.80;99.90;;;;;;5114768;27;20501;-70
2023/05/10 02:37:14;;;;;;;1.37;0.50;;;12.90;99.90;;;;;;5133607;27;20417;-70
2023/05/10 02:39:43;;;;;;;0.90;0.40;;;12.90;99.90;;;;;;5115112;27;20467;-70
2023/05/10 02:42:18;;;;;;;0.97;0.43;;;12.90;99.90;;;;;;5114671;27;20442;-69
2023/05/10 02:44:47;;;;;;;0.70;0.40;;;12.90;99.90;;;;;;5114643;27;21130;-70
2023/05/10 02:47:13;;;;;;;2.50;0.63;;;12.90;99.90;;;;;;5133207;27;20516;-70
2023/05/10 02:49:39;;;;;;;0.80;0.40;;;12.90;99.90;;;;;;5133176;27;20504;-70
2023/05/10 02:52:06;;;;;;;5.63;0.60;;;12.80;99.90;;;;;;5133196;27;20279;-70
2023/05/10 02:54:39;;;;;;;0.70;0.50;;;12.80;99.90;;;;;;5114999;27;20184;-70
2023/05/10 02:57:07;;;;;;;0.80;0.53;;;12.70;99.90;;;;;;5133093;27;20432;-69
2023/05/10 02:59:32;;;;;;;1.07;0.60;;;12.80;99.90;;;;;;5114360;27;20410;-70
2023/05/10 03:02:00;;;;;;;4.10;0.73;;;12.80;99.90;;;;;;5133186;27;20437;-70
2023/05/10 03:04:25;;;;;;;0.80;0.50;;;12.80;99.90;;;;;;5132894;27;20214;-70
2023/05/10 03:06:51;;;;;;;0.80;0.50;;;12.80;99.90;;;;;;5132843;27;20432;-70
2023/05/10 03:09:17;;;;;;;2.17;0.60;;;12.70;99.90;;;;;;5132977;27;20263;-70
2023/05/10 03:12:15;;;;;;;3.33;0.70;;;12.70;99.90;;;;;;5133250;27;21016;-70
2023/05/10 03:15:03;;;;;;;2.10;0.50;;;12.70;99.90;;;;;;5133358;27;20171;-69
2023/05/10 03:17:46;;;;;;;3.40;0.60;;;12.70;99.90;;;;;;5133439;27;20430;-70
2023/05/10 03:20:21;;;;;;;3.23;1.00;;;12.70;99.90;;;;;;5133373;27;20402;-69
2023/05/10 03:23:00;;;;;;;2.73;0.60;;;12.70;99.90;;;;;;5132767;27;20793;-70
2023/05/10 03:25:26;;;;;;;1.63;0.60;;;12.70;99.90;;;;;;5132428;27;20846;-70
2023/05/10 03:27:52;;;;;;;2.13;0.60;;;12.70;99.90;;;;;;5114081;27;20410;-70
2023/05/10 03:30:19;;;;;;;2.87;0.60;;;12.70;99.90;;;;;;5114651;27;20415;-70
2023/05/10 03:32:45;;;;;;;0.80;0.60;;;12.60;99.90;;;;;;5114067;27;20446;-69
2023/05/10 03:35:13;;;;;;;2.60;0.70;;;12.60;99.90;;;;;;5114257;27;20475;-69
2023/05/10 03:37:39;;;;;;;1.63;0.60;;;12.50;99.90;;;;;;5132516;27;20441;-69
2023/05/10 03:40:06;;;;;;;6.20;0.73;;;12.50;99.90;;;;;;5131049;27;20446;-69
2023/05/10 03:42:32;;;;;;;2.83;0.70;;;12.50;99.90;;;;;;5131810;27;20446;-69
2023/05/10 03:44:57;;;;;;;1.13;0.70;;;12.40;99.90;;;;;;5131770;27;20472;-69
2023/05/10 03:47:23;;;;;;;2.70;0.90;;;12.40;99.90;;;;;;5131952;27;20938;-69
2023/05/10 03:49:48;;;;;;;0.90;0.70;;;12.30;99.90;;;;;;5131907;27;20183;-70
2023/05/10 03:52:14;;;;;;;0.90;0.80;;;12.30;99.90;;;;;;5131939;27;20236;-71
2023/05/10 03:54:40;;;;;;;4.67;1.10;;;12.30;99.90;;;;;;5113366;27;20693;-70
2023/05/10 03:57:05;;;;;;;1.80;0.93;;;12.30;99.90;;;;;;5114426;27;20194;-70
2023/05/10 03:59:31;;;;;;;3.90;0.60;;;12.40;99.90;;;;;;5133946;27;20615;-70
2023/05/10 04:01:56;;;;;;;10.40;0.93;;;12.40;99.90;;;;;;5115116;27;20192;-71
2023/05/10 04:04:23;;;;;;;1.10;0.70;;;12.30;99.90;;;;;;5133270;27;20294;-70
2023/05/10 04:06:49;;;;;;;3.13;1.20;;;12.30;99.90;;;;;;5132087;27;20292;-71
2023/05/10 04:09:14;;;;;;;1.00;0.60;;;12.30;99.90;;;;;;5131557;27;20409;-71
2023/05/10 04:11:40;;;;;;;28.80;15.47;;;12.20;99.90;;;;;;5112663;27;20857;-70
2023/05/10 04:14:06;;;;;;;1.53;1.10;;;12.20;99.90;;;;;;5131407;27;20423;-70
2023/05/10 04:16:31;;;;;;;3.23;0.80;;;12.30;99.90;;;;;;5131277;27;20766;-71
2023/05/10 04:18:57;;;;;;;2.50;0.67;;;12.30;99.90;;;;;;5131665;27;20224;-70
2023/05/10 04:21:22;;;;;;;2.17;0.70;;;12.30;99.90;;;;;;5131224;27;20188;-71
2023/05/10 04:23:48;;;;;;;7.00;0.60;;;12.40;99.90;;;;;;5131279;27;20193;-70
2023/05/10 04:26:14;;;;;;;1.40;0.70;;;12.40;99.90;;;;;;5131063;27;20196;-71
2023/05/10 04:28:39;;;;;;;3.37;0.87;;;12.40;99.90;;;;;;5131381;27;20639;-70
2023/05/10 04:31:07;;;;;;;1.73;0.70;;;12.30;99.90;;;;;;5130885;27;20535;-70
2023/05/10 04:33:33;;;;;;;1.00;0.70;;;12.40;99.90;;;;;;5112197;27;20183;-70
2023/05/10 04:35:59;;;;;;;0.80;0.70;;;12.40;99.90;;;;;;5112061;27;20448;-69
2023/05/10 04:38:25;;;;;;;1.33;0.83;;;12.40;99.90;;;;;;5130921;27;20436;-70
2023/05/10 04:40:51;;;;;;;0.80;0.63;;;12.30;99.90;;;;;;5111661;27;20957;-70
2023/05/10 04:43:16;;;;;;;1.33;0.60;;;12.40;99.90;;;;;;5130770;27;20201;-70
2023/05/10 04:45:42;;;;;;;0.80;0.57;;;12.40;99.90;;;;;;5130716;27;20213;-70
2023/05/10 04:48:08;;;;;;;1.33;0.67;;;12.40;99.90;;;;;;5130914;27;20668;-70
2023/05/10 04:50:33;;;;;;;1.33;0.70;;;12.40;99.90;;;;;;5130334;27;20659;-70
2023/05/10 04:52:59;;;;;;;0.90;0.63;;;12.30;99.90;;;;;;5130576;27;20203;-70
2023/05/10 04:55:26;;;;;;;2.07;0.60;;;12.40;99.90;;;;;;5111848;27;20211;-70
2023/05/10 04:57:52;;;;;;;1.30;0.77;;;12.40;99.90;;;;;;5130780;27;20620;-70
2023/05/10 05:00:17;;;;;;;0.90;0.70;;;12.50;99.90;;;;;;5130171;27;20456;-69
2023/05/10 05:02:46;;;;;;;2.30;0.63;;;12.50;99.90;;;;;;5110998;27;20274;-69
2023/05/10 05:05:12;;;;;;;1.57;0.90;;;12.60;99.90;;;;;;5129342;27;20469;-68
2023/05/10 05:07:38;;;;;;;0.80;0.63;;;12.60;99.90;;;;;;5110458;27;20777;-68
2023/05/10 05:10:08;;;;;;;0.80;0.60;;;12.60;99.90;;;;;;5129273;27;20498;-68
2023/05/10 05:12:34;;;;;;;2.70;0.70;;;12.60;99.90;;;;;;5129333;27;20208;-68
2023/05/10 05:15:02;;;;;;;1.23;0.80;;;12.50;99.90;;;;;;5129376;27;21021;-68
2023/05/10 05:17:29;;;;;;;1.97;0.90;;;12.50;99.90;;;;;;5129236;27;20420;-69
2023/05/10 05:19:55;;;;;;;0.97;0.67;;;12.40;99.90;;;;;;5129267;27;20831;-69
2023/05/10 05:22:27;;;;;;;0.90;0.63;;;12.40;99.90;;;;;;5093781;27;20426;-68
2023/05/10 05:24:53;;;;;;;1.97;0.93;;;12.40;99.90;;;;;;5128997;27;20983;-69
2023/05/10 05:27:20;;;;;;;1.10;0.80;;;12.40;99.90;;;;;;5093120;27;20437;-69
2023/05/10 05:29:46;;;;;;;3.43;0.80;;;12.50;99.90;;;;;;5128806;27;20946;-69
2023/05/10 05:32:12;;;;;;;1.73;0.67;;;12.50;99.90;;;;;;5129095;27;20411;-69
2023/05/10 05:34:37;;;;;;;2.90;0.90;;;12.50;99.90;;;;;;5128960;27;20182;-69
2023/05/10 05:37:03;;;;;;;7.80;0.60;;;12.50;99.90;;;;;;5128972;27;20439;-68
2023/05/10 05:39:28;;;;;;;1.20;0.70;;;12.50;99.90;;;;;;5128900;27;20244;-69
2023/05/10 05:41:54;;;;;;;3.03;0.83;;;12.50;99.90;;;;;;5128811;27;20283;-68
2023/05/10 05:44:20;;;;;;;4.83;1.00;;;12.50;99.90;;;;;;5110263;27;20205;-69
2023/05/10 05:46:45;;;;;;;3.10;0.63;;;12.60;99.90;;;;;;5128801;27;20511;-67
2023/05/10 05:49:12;;;;;;;1.77;0.77;;;12.50;99.90;;;;;;5128643;27;20179;-68
2023/05/10 05:51:37;;;;;;;4.13;0.90;;;12.60;99.90;;;;;;5128720;27;20207;-69
2023/05/10 05:54:04;;;;;;;1.40;1.10;;;12.60;99.90;;;;;;5128499;27;20914;-69
2023/05/10 05:56:30;;;;;;;0.80;0.70;;;12.70;99.90;;;;;;5127995;27;20255;-70
2023/05/10 05:58:55;;;;;;;0.80;0.50;;;12.80;99.90;;;;;;5128305;27;20424;-69
2023/05/10 06:01:21;;;;;;;1.00;0.80;;;12.80;99.90;;;;;;5109610;27;20499;-69
2023/05/10 06:03:46;;;;;;;2.70;0.70;;;12.70;99.90;;;;;;5108860;27;20208;-69
2023/05/10 06:06:12;;;;;;;5.93;1.87;;;12.80;99.90;;;;;;5109704;28;20207;-67
2023/05/10 06:08:38;;;;;;;0.80;0.80;;;12.70;99.90;;;;;;5128580;27;20178;-68
2023/05/10 06:11:04;;;;;;;1.87;1.20;;;12.80;99.90;;;;;;5110177;28;20184;-68
2023/05/10 06:13:31;;;;;;;1.77;0.90;;;12.80;99.90;;;;;;5109945;28;20738;-69
2023/05/10 06:15:58;;;;;;;3.00;1.10;;;12.90;99.90;;;;;;5128461;27;20572;-69
2023/05/10 06:18:24;;;;;;;1.67;1.20;;;12.80;99.90;;;;;;5109982;28;20959;-70
2023/05/10 06:20:50;;;;;;;1.50;0.90;;;12.90;99.90;;;;;;5128334;28;20439;-70
2023/05/10 06:23:15;;;;;;;1.50;1.40;;;12.90;99.90;;;;;;5128402;28;20208;-69
2023/05/10 06:25:41;;;;;;;1.63;0.97;;;12.90;99.90;;;;;;5128398;27;20469;-70
2023/05/10 06:28:06;;;;;;;0.80;0.77;;;12.90;99.90;;;;;;5129064;28;20735;-70
2023/05/10 06:30:32;;;;;;;1.00;0.90;;;12.80;99.90;;;;;;5110284;28;20188;-69
2023/05/10 06:32:58;;;;;;;1.27;1.00;;;12.90;99.90;;;;;;5076260;28;20192;-70
2023/05/10 06:35:24;;;;;;;1.10;1.00;;;13.00;99.90;;;;;;5128419;27;20357;-69
2023/05/10 06:37:50;;;;;;;1.90;1.10;;;12.80;99.90;;;;;;5129371;28;20655;-69
2023/05/10 06:40:16;;;;;;;1.10;0.90;;;12.80;99.90;;;;;;5129092;28;20176;-70
2023/05/10 06:42:42;;;;;;;1.23;1.00;;;13.00;99.90;;;;;;5110404;28;20438;-69
2023/05/10 06:45:08;;;;;;;2.87;1.10;;;13.00;99.90;;;;;;5109910;27;20224;-69
2023/05/10 06:47:34;;;;;;;1.03;0.93;;;13.00;99.90;;;;;;5128014;28;20189;-69
2023/05/10 06:50:00;;;;;;;1.10;0.80;;;13.10;99.90;;;;;;5128446;27;20570;-70
2023/05/10 06:52:26;;;;;;;2.97;0.90;;;13.10;99.90;;;;;;5109272;28;20183;-69
2023/05/10 06:54:51;;;;;;;1.00;0.90;;;13.10;99.90;;;;;;5127553;27;20923;-69
2023/05/10 06:57:17;;;;;;;1.23;0.83;;;13.00;99.90;;;;;;5127373;27;20177;-70
2023/05/10 06:59:43;;;;;;;2.23;0.73;;;13.00;99.90;;;;;;5127593;27;20175;-69
2023/05/10 07:02:09;;;;;;;1.20;0.73;;;13.10;99.90;;;;;;5108683;28;20501;-70
2023/05/10 07:04:34;;;;;;;2.60;0.90;;;13.10;99.90;;;;;;5127291;28;20575;-70
2023/05/10 07:07:00;;;;;;;1.53;0.83;;;13.10;99.90;;;;;;5127342;27;20193;-69
2023/05/10 07:09:25;;;;;;;0.93;0.80;;;13.10;99.90;;;;;;5108696;28;20195;-70
2023/05/10 07:11:51;;;;;;;1.10;0.80;;;13.20;99.90;;;;;;5127389;28;20271;-70
2023/05/10 07:14:16;;;;;;;2.30;1.00;;;13.20;99.90;;;;;;5128597;27;20188;-70
2023/05/10 07:16:42;;;;;;;1.00;0.77;;;13.20;99.90;;;;;;5112927;27;20717;-70
2023/05/10 07:19:08;;;;;;;5.63;1.23;;;13.30;99.90;;;;;;5131228;27;20188;-70
2023/05/10 07:21:34;;;;;;;0.80;0.63;;;13.40;99.90;;;;;;5131212;27;20188;-70
2023/05/10 07:24:00;;;;;;;0.80;0.60;;;13.50;99.90;;;;;;5130903;27;20184;-70
2023/05/10 07:26:26;;;;;;;2.70;0.93;;;13.60;99.90;;;;;;5131191;27;20439;-70
2023/05/10 07:28:51;;;;;;;0.90;0.70;;;13.80;99.90;;;;;;5112225;27;20428;-70
2023/05/10 07:31:17;;;;;;;1.63;0.80;;;13.80;99.90;;;;;;5130914;27;20177;-68
2023/05/10 07:33:43;;;;;;;1.17;0.87;;;13.80;99.90;;;;;;5112678;27;20222;-70
2023/05/10 07:36:08;;;;;;;2.00;0.80;;;13.90;99.90;;;;;;5131181;27;20285;-70
2023/05/10 07:38:34;;;;;;;1.23;0.90;;;13.90;99.90;;;;;;5131524;27;20198;-70
2023/05/10 07:40:59;;;;;;;1.90;1.47;;;13.90;99.90;;;;;;5131152;27;20197;-70
2023/05/10 07:43:25;;;;;;;0.80;0.70;;;13.90;99.90;;;;;;5112724;27;20182;-70
2023/05/10 07:45:51;;;;;;;5.53;1.00;;;13.80;99.90;;;;;;5133197;27;20219;-70
2023/05/10 07:48:16;;;;;;;1.63;0.80;;;13.80;99.90;;;;;;5113750;27;20173;-69
2023/05/10 07:50:42;;;;;;;3.03;0.90;;;13.80;99.90;;;;;;5131908;27;20421;-70
2023/05/10 07:53:07;;;;;;;0.80;0.60;;;13.80;99.90;;;;;;5113155;27;20183;-70
2023/05/10 07:55:33;;;;;;;1.07;0.70;;;13.90;99.90;;;;;;5131272;27;20601;-70
2023/05/10 07:58:00;;;;;;;0.90;0.50;;;13.90;99.90;;;;;;5130966;27;20177;-70
2023/05/10 08:00:26;;;;;;;1.17;0.67;;;13.80;99.90;;;;;;5131015;27;20188;-70
2023/05/10 08:02:52;;;;;;;0.90;0.63;;;13.80;99.90;;;;;;5130600;27;20421;-70
2023/05/10 08:05:18;;;;;;;1.13;0.80;;;13.90;99.90;;;;;;5130605;27;20213;-70
2023/05/10 08:07:44;;;;;;;1.40;0.77;;;13.90;99.90;;;;;;5112102;27;20498;-70
2023/05/10 08:10:11;;;;;;;0.80;0.50;;;14.10;99.90;;;;;;5130366;27;20182;-70
2023/05/10 08:12:37;;;;;;;4.60;0.73;;;14.20;99.90;;;;;;5130445;27;20181;-69
2023/05/10 08:15:03;;;;;;;1.77;0.53;;;14.30;99.90;;;;;;5130625;27;20419;-69
2023/05/10 08:17:29;;;;;;;4.93;0.80;;;14.40;99.90;;;;;;5130585;27;20411;-69
2023/05/10 08:19:54;;;;;;;0.80;0.50;;;14.50;99.90;;;;;;5112154;27;20919;-69
2023/05/10 08:22:20;;;;;;;1.10;0.70;;;14.50;99.90;;;;;;5130716;27;20181;-69
2023/05/10 08:24:45;;;;;;;1.97;0.60;;;14.30;99.90;;;;;;5130963;27;20210;-70
2023/05/10 08:27:11;;;;;;;0.80;0.57;;;14.30;99.90;;;;;;5129924;27;20617;-70
2023/05/10 08:29:37;;;;;;;0.80;0.50;;;14.10;99.90;;;;;;5130691;27;20181;-69
2023/05/10 08:32:03;;;;;;;0.87;0.60;;;14.30;99.90;;;;;;5130592;27;20185;-70
2023/05/10 08:34:30;;;;;;;0.80;0.57;;;14.40;99.90;;;;;;5130266;27;20469;-70
2023/05/10 08:36:56;;;;;;;1.67;0.70;;;14.30;99.90;;;;;;5129626;27;20291;-70
2023/05/10 08:39:23;;;;;;;0.80;0.60;;;14.30;99.90;;;;;;5129601;27;20418;-70
2023/05/10 08:41:51;;;;;;;1.00;0.60;;;14.30;99.90;;;;;;5129430;27;20280;-70
2023/05/10 08:44:18;;;;;;;3.17;0.83;;;14.40;99.90;;;;;;5129750;27;20470;-69
2023/05/10 08:46:46;;;;;;;1.13;0.67;;;14.50;99.90;;;;;;5111007;27;20492;-70
2023/05/10 08:49:19;;;;;;;1.33;0.60;;;14.50;99.90;;;;;;5129131;27;20942;-69
2023/05/10 08:51:49;;;;;;;1.40;0.80;;;14.70;99.90;;;;;;5110682;27;20443;-71
2023/05/10 08:54:15;;;;;;;1.13;0.60;;;14.70;99.90;;;;;;5129388;27;20435;-70
2023/05/10 08:56:41;;;;;;;1.67;0.53;;;14.90;99.90;;;;;;5129224;27;20850;-69
2023/05/10 08:59:07;;;;;;;3.67;0.60;;;15.10;99.90;;;;;;5110688;27;20414;-70
2023/05/10 09:01:35;;;;;;;1.73;0.77;;;15.00;99.90;;;;;;5129048;27;20568;-71
2023/05/10 09:04:00;;;;;;;1.47;0.50;;;15.00;99.90;;;;;;5110173;27;20963;-69
2023/05/10 09:06:26;;;;;;;0.90;0.50;;;15.10;99.90;;;;;;5110386;27;20835;-69
2023/05/10 09:08:52;;;;;;;2.83;0.60;;;15.30;99.90;;;;;;5128934;27;20574;-70
2023/05/10 09:11:20;;;;;;;0.90;0.50;;;15.30;99.90;;;;;;5128975;27;20415;-69
2023/05/10 09:13:47;;;;;;;1.43;0.97;;;15.20;99.90;;;;;;5128930;27;20732;-70
2023/05/10 09:16:13;;;;;;;0.80;0.67;;;15.30;99.90;;;;;;5110015;27;20475;-70
2023/05/10 09:18:39;;;;;;;1.40;0.80;;;15.30;99.90;;;;;;5128627;27;20461;-70
2023/05/10 09:21:04;;;;;;;4.17;0.80;;;15.40;99.90;;;;;;5128815;27;20261;-70
2023/05/10 09:23:32;;;;;;;1.73;0.90;;;15.60;99.90;;;;;;5110381;27;20225;-71
2023/05/10 09:26:07;;;;;;;1.33;0.70;;;15.70;99.90;;;;;;5093596;27;20210;-70
2023/05/10 09:28:52;;;;;;;1.73;0.80;;;15.70;99.90;;;;;;5128511;27;20423;-70
2023/05/10 09:31:17;;;;;;;2.03;0.97;;;15.80;99.90;;;;;;5092926;27;20433;-70
2023/05/10 09:33:47;;;;;;;0.80;0.67;;;15.80;99.90;;;;;;5128266;27;20407;-70
2023/05/10 09:36:13;;;;;;;1.87;0.60;;;15.60;99.90;;;;;;5128279;27;20201;-70
2023/05/10 09:38:49;;;;;;;1.73;0.77;;;15.50;99.90;;;;;;5127174;27;20423;-70
2023/05/10 09:41:24;;;;;;;0.90;0.70;;;15.50;99.90;;;;;;5128149;27;20855;-70
2023/05/10 09:43:54;;;;;;;2.50;0.77;;;15.50;99.90;;;;;;5128143;27;20915;-69
2023/05/10 09:46:20;;;;;;;1.90;0.57;;;15.50;99.90;;;;;;5128033;27;20464;-70
2023/05/10 09:48:47;;;;;;;2.07;0.70;;;15.40;99.90;;;;;;5128187;27;20945;-70
2023/05/10 09:51:23;;;;;;;1.10;0.90;;;15.40;99.90;;;;;;5128196;27;20190;-70
2023/05/10 09:54:12;;;;;;;2.17;0.80;;;15.40;99.90;;;;;;5128150;27;20398;-70
2023/05/10 09:56:40;;;;;;;0.80;0.60;;;15.20;99.90;;;;;;5128114;27;20432;-69
2023/05/10 09:59:06;;;;;;;1.10;0.60;;;15.30;99.90;;;;;;5128115;27;20395;-69
2023/05/10 10:01:33;;;;;;;2.80;0.60;;;15.50;99.90;;;;;;5128012;27;20791;-70
2023/05/10 10:03:58;;;;;;;1.03;0.60;;;15.80;99.90;;;;;;5110077;28;20475;-69
2023/05/10 10:06:25;;;;;;;1.23;0.60;;;15.90;99.90;;;;;;5110021;27;20431;-70
2023/05/10 10:08:52;;;;;;;0.80;0.50;;;16.00;99.90;;;;;;5110246;28;20201;-69
2023/05/10 10:11:18;;;;;;;2.30;0.50;;;16.00;99.90;;;;;;5128640;27;20415;-69
2023/05/10 10:13:43;;;;;;;2.37;0.77;;;16.20;99.90;;;;;;5076190;28;20435;-70
2023/05/10 10:16:09;;;;;;;1.07;0.50;;;16.40;99.90;;;;;;5128443;27;20234;-70
2023/05/10 10:18:38;;;;;;;1.83;0.50;;;16.50;99.90;;;;;;5109422;28;20246;-70
2023/05/10 10:21:08;;;;;;;0.80;0.50;;;16.70;99.90;;;;;;5109365;28;20216;-70
2023/05/10 10:23:34;;;;;;;3.37;0.53;;;16.80;99.90;;;;;;5128116;28;20580;-70
2023/05/10 10:26:01;;;;;;;1.63;0.50;;;16.90;99.90;;;;;;5127628;27;20468;-70
2023/05/10 10:28:47;;;;;;;5.17;0.60;;;17.00;99.90;;;;;;5109352;28;20413;-70
2023/05/10 10:31:41;;;;;;;12.77;1.23;;;17.10;99.90;;;;;;5109117;28;20427;-70
2023/05/10 10:34:10;;;;;;;1.73;0.40;;;17.40;99.90;;;;;;5083651;27;20426;-70
2023/05/10 10:36:46;;;;;;;0.70;0.40;;;17.50;99.90;;;;;;5108700;28;20447;-70
2023/05/10 10:39:13;;;;;;;0.70;0.40;;;17.50;99.90;;;;;;5127581;28;20465;-70
2023/05/10 10:41:49;;;;;;;1.43;0.40;;;17.40;99.90;;;;;;5127427;28;20435;-70
2023/05/10 10:44:30;;;;;;;4.50;0.47;;;17.30;99.90;;;;;;5110455;27;20449;-70
2023/05/10 10:47:03;;;;;;;0.90;0.60;;;17.10;99.90;;;;;;5127596;27;20765;-70
2023/05/10 10:49:33;;;;;;;4.50;0.63;;;17.00;99.90;;;;;;5110516;27;20431;-70
2023/05/10 10:52:33;;;;;;;4.57;0.40;;;16.70;99.90;;;;;;5131895;27;20511;-69
2023/05/10 10:55:06;;;;;;;1.33;0.50;;;15.80;99.90;;;;;;5131447;27;20806;-70
2023/05/10 10:57:43;;;;;;;1.23;0.50;;;15.40;99.90;;;;;;5131418;27;20417;-70
2023/05/10 11:00:23;;;;;;;2.50;0.60;;;15.50;99.90;;;;;;5131777;27;20915;-70
2023/05/10 11:03:04;;;;;;;1.03;0.50;;;15.60;99.90;;;;;;5131735;27;20503;-69
2023/05/10 11:05:32;;;;;;;0.80;0.50;;;15.30;99.90;;;;;;5131660;27;20601;-70
2023/05/10 11:08:00;;;;;;;2.00;0.47;;;15.10;99.90;;;;;;5131134;27;20731;-70
2023/05/10 11:10:26;;;;;;;0.80;0.60;;;15.10;99.90;;;;;;5131218;27;20419;-70
2023/05/10 11:12:53;;;;;;;2.40;0.50;;;15.00;99.90;;;;;;5131168;27;20420;-70
2023/05/10 11:15:19;;;;;;;1.83;0.50;;;14.80;99.90;;;;;;5130933;27;20528;-69
2023/05/10 11:17:50;;;;;;;0.80;0.50;;;14.80;99.90;;;;;;5131015;27;21217;-70
2023/05/10 11:20:22;;;;;;;1.27;0.50;;;14.90;99.90;;;;;;5131830;27;20424;-70
2023/05/10 11:22:54;;;;;;;1.30;0.60;;;14.80;99.90;;;;;;5113278;27;20482;-70
2023/05/10 11:25:26;;;;;;;1.00;0.60;;;15.00;99.90;;;;;;5130768;27;20852;-69
2023/05/10 11:27:52;;;;;;;4.10;0.63;;;15.30;99.90;;;;;;5130920;27;20907;-69
2023/05/10 11:30:18;;;;;;;1.27;0.50;;;15.20;99.90;;;;;;5112338;27;20836;-70
2023/05/10 11:32:44;;;;;;;2.07;0.67;;;15.20;99.90;;;;;;5130775;27;20411;-70
2023/05/10 11:35:12;;;;;;;1.10;0.50;;;15.40;99.90;;;;;;5130615;27;20208;-70
2023/05/10 11:37:43;;;;;;;1.63;0.87;;;15.50;99.90;;;;;;5130660;27;20449;-70
2023/05/10 11:40:10;;;;;;;1.20;0.50;;;15.60;99.90;;;;;;5112537;27;20431;-70
2023/05/10 11:42:39;;;;;;;5.20;1.00;;;15.60;99.90;;;;;;5130338;27;20447;-70
2023/05/10 11:45:05;;;;;;;2.07;0.63;;;15.40;99.90;;;;;;5130503;27;20469;-70
2023/05/10 11:47:31;;;;;;;1.13;0.50;;;15.00;99.90;;;;;;5130505;27;20508;-69
2023/05/10 11:49:57;;;;;;;2.27;0.60;;;14.40;99.90;;;;;;5130457;27;20486;-70
2023/05/10 11:52:23;;;;;;;0.80;0.50;;;14.00;99.90;;;;;;5130484;27;20182;-70
2023/05/10 11:54:53;;;;;;;1.67;0.57;;;13.60;99.90;;;;;;5130331;27;20427;-70
2023/05/10 11:57:20;;;;;;;0.97;0.50;;;13.50;99.90;;;;;;5130861;27;21094;-69
2023/05/10 11:59:46;;;;;;;0.80;0.50;;;13.30;99.90;;;;;;5130846;27;20571;-70
2023/05/10 12:02:13;;;;;;;4.90;0.70;;;13.20;99.90;;;;;;5111521;27;20427;-69
2023/05/10 12:04:39;;;;;;;1.53;0.60;;;13.10;99.90;;;;;;5112038;27;21041;-70
2023/05/10 12:07:05;;;;;;;0.97;0.50;;;13.10;99.90;;;;;;5130196;27;20437;-70
2023/05/10 12:09:31;;;;;;;0.87;0.60;;;12.90;99.90;;;;;;5130869;27;20421;-70
2023/05/10 12:12:00;;;;;;;2.17;0.80;;;13.00;99.90;;;;;;5130629;27;20184;-69
2023/05/10 12:14:26;;;;;;;7.60;0.67;;;13.10;99.90;;;;;;5131207;27;20192;-69
2023/05/10 12:16:52;;;;;;;2.23;0.60;;;13.10;99.90;;;;;;5112297;27;20446;-69
2023/05/10 12:19:21;;;;;;;4.10;0.57;;;13.00;99.90;;;;;;5077844;27;20549;-69
2023/05/10 12:21:47;;;;;;;2.17;0.80;;;13.10;99.90;;;;;;5112294;27;20388;-69
2023/05/10 12:24:13;;;;;;;4.43;1.10;;;13.20;99.90;;;;;;5130361;27;20460;-69
2023/05/10 12:26:39;;;;;;;4.80;0.70;;;13.20;99.90;;;;;;5130463;27;20511;-69
2023/05/10 12:29:16;;;;;;;1.03;0.67;;;13.30;99.90;;;;;;5130531;27;20423;-69
2023/05/10 12:31:52;;;;;;;1.83;0.80;;;13.30;99.90;;;;;;5111891;27;20492;-68
2023/05/10 12:34:31;;;;;;;2.30;0.60;;;13.40;99.90;;;;;;5130537;27;20446;-69
2023/05/10 12:36:58;;;;;;;1.20;1.00;;;13.50;99.90;;;;;;5129666;27;20438;-70
2023/05/10 12:39:24;;;;;;;2.03;0.80;;;13.60;99.90;;;;;;5111357;27;20471;-70
2023/05/10 12:41:51;;;;;;;1.43;0.63;;;13.60;99.90;;;;;;5129367;27;20445;-70
2023/05/10 12:44:17;;;;;;;1.57;1.07;;;13.70;99.90;;;;;;5129797;27;20444;-69
2023/05/10 12:46:43;;;;;;;5.83;1.03;;;13.90;99.90;;;;;;5129481;27;20810;-70
2023/05/10 12:49:08;;;;;;;3.13;0.67;;;13.90;99.90;;;;;;5129628;27;20415;-71